Aventura, Florida
Current Conditions -  °F | °C
As of 1:53 PM on Thursday 30 Oct 2014 (Local Time) from KHWO Reporting Station
Scattered Clouds Scattered Clouds  
Wind Chill: 87°   Ceiling: Unl
Heat Index: 87°   Visibility: 10mi
Dew Point: 61°   Wind: 7mph
Humidity: 41%   Direction: NA
Pressure: 29.92"   Gusts: NA
Location:  25.9536°N, 80.1568°W
Report Text: KHWO 301753Z VRB06KT 10SM SCT055 SCT070 31/16 A2992 RMK AO2 SLP130 T03060161 10306 20206 58026
Loading
Personal Weather Stations






























Interactive Weather Map
Tropical Storm Tracking
New forecast layout! Learn more

10-Day Weather Forecast

Advertisements
Track Severe Weather on mobile